sensor_id;sensor_type;location;lat;lon;timestamp;P1;durP1;ratioP1;P2;durP2;ratioP2
36233;SDS011;43467;50.890;5.982;2023-07-29T00:01:44;3.38;;;2.13;;
36233;SDS011;43467;50.890;5.982;2023-07-29T00:04:11;2.75;;;2.10;;
36233;SDS011;43467;50.890;5.982;2023-07-29T00:06:36;2.17;;;1.73;;
36233;SDS011;43467;50.890;5.982;2023-07-29T00:09:02;3.42;;;2.05;;
36233;SDS011;43467;50.890;5.982;2023-07-29T00:11:28;4.97;;;1.92;;
36233;SDS011;43467;50.890;5.982;2023-07-29T00:13:55;3.08;;;1.50;;
36233;SDS011;43467;50.890;5.982;2023-07-29T00:16:21;2.15;;;1.42;;
36233;SDS011;43467;50.890;5.982;2023-07-29T00:18:47;3.15;;;1.30;;
36233;SDS011;43467;50.890;5.982;2023-07-29T00:21:13;2.42;;;1.27;;
36233;SDS011;43467;50.890;5.982;2023-07-29T00:23:39;2.33;;;1.20;;
36233;SDS011;43467;50.890;5.982;2023-07-29T00:26:05;2.28;;;1.00;;
36233;SDS011;43467;50.890;5.982;2023-07-29T00:28:30;4.25;;;1.17;;
36233;SDS011;43467;50.890;5.982;2023-07-29T00:30:56;1.75;;;1.02;;
36233;SDS011;43467;50.890;5.982;2023-07-29T00:33:22;1.08;;;0.95;;
36233;SDS011;43467;50.890;5.982;2023-07-29T00:35:47;1.73;;;1.02;;
36233;SDS011;43467;50.890;5.982;2023-07-29T00:38:13;3.15;;;1.00;;
36233;SDS011;43467;50.890;5.982;2023-07-29T00:40:38;2.80;;;1.33;;
36233;SDS011;43467;50.890;5.982;2023-07-29T00:43:04;3.72;;;1.13;;
36233;SDS011;43467;50.890;5.982;2023-07-29T00:45:30;4.03;;;1.50;;
36233;SDS011;43467;50.890;5.982;2023-07-29T00:47:57;4.07;;;1.58;;
36233;SDS011;43467;50.890;5.982;2023-07-29T00:50:23;4.55;;;1.60;;
36233;SDS011;43467;50.890;5.982;2023-07-29T00:52:49;4.32;;;1.85;;
36233;SDS011;43467;50.890;5.982;2023-07-29T00:55:15;6.30;;;1.40;;
36233;SDS011;43467;50.890;5.982;2023-07-29T00:57:41;3.90;;;1.25;;
36233;SDS011;43467;50.890;5.982;2023-07-29T01:00:13;3.25;;;1.30;;
36233;SDS011;43467;50.890;5.982;2023-07-29T01:02:39;2.03;;;1.10;;
36233;SDS011;43467;50.890;5.982;2023-07-29T01:05:04;1.85;;;1.25;;
36233;SDS011;43467;50.890;5.982;2023-07-29T01:15:33;2.53;;;1.70;;
36233;SDS011;43467;50.890;5.982;2023-07-29T01:18:10;1.92;;;1.52;;
36233;SDS011;43467;50.890;5.982;2023-07-29T01:20:43;3.67;;;1.10;;
36233;SDS011;43467;50.890;5.982;2023-07-29T01:23:10;2.83;;;1.40;;
36233;SDS011;43467;50.890;5.982;2023-07-29T01:25:36;2.50;;;1.40;;
36233;SDS011;43467;50.890;5.982;2023-07-29T01:28:01;3.58;;;1.67;;
36233;SDS011;43467;50.890;5.982;2023-07-29T01:30:29;4.20;;;2.55;;
36233;SDS011;43467;50.890;5.982;2023-07-29T01:33:04;3.10;;;1.38;;
36233;SDS011;43467;50.890;5.982;2023-07-29T01:35:58;2.55;;;1.40;;
36233;SDS011;43467;50.890;5.982;2023-07-29T01:38:29;4.00;;;1.60;;
36233;SDS011;43467;50.890;5.982;2023-07-29T01:41:02;3.40;;;1.70;;
36233;SDS011;43467;50.890;5.982;2023-07-29T01:43:31;3.80;;;2.05;;
36233;SDS011;43467;50.890;5.982;2023-07-29T01:45:57;5.25;;;2.50;;
36233;SDS011;43467;50.890;5.982;2023-07-29T01:48:23;3.55;;;1.83;;
36233;SDS011;43467;50.890;5.982;2023-07-29T01:50:49;2.20;;;2.00;;
36233;SDS011;43467;50.890;5.982;2023-07-29T01:53:14;4.28;;;1.90;;
36233;SDS011;43467;50.890;5.982;2023-07-29T01:55:40;2.42;;;1.73;;
36233;SDS011;43467;50.890;5.982;2023-07-29T01:58:06;5.40;;;2.22;;
36233;SDS011;43467;50.890;5.982;2023-07-29T02:00:32;5.93;;;2.72;;
36233;SDS011;43467;50.890;5.982;2023-07-29T02:02:57;3.30;;;2.25;;
36233;SDS011;43467;50.890;5.982;2023-07-29T02:05:23;9.00;;;2.08;;
36233;SDS011;43467;50.890;5.982;2023-07-29T02:07:49;6.80;;;2.45;;
36233;SDS011;43467;50.890;5.982;2023-07-29T02:10:15;5.32;;;2.78;;
36233;SDS011;43467;50.890;5.982;2023-07-29T02:12:41;2.03;;;1.83;;
36233;SDS011;43467;50.890;5.982;2023-07-29T02:15:06;5.35;;;2.42;;
36233;SDS011;43467;50.890;5.982;2023-07-29T02:17:32;6.35;;;2.58;;
36233;SDS011;43467;50.890;5.982;2023-07-29T02:19:58;4.07;;;2.60;;
36233;SDS011;43467;50.890;5.982;2023-07-29T02:22:24;3.22;;;2.35;;
36233;SDS011;43467;50.890;5.982;2023-07-29T02:24:50;2.88;;;2.50;;
36233;SDS011;43467;50.890;5.982;2023-07-29T02:27:16;3.42;;;2.42;;
36233;SDS011;43467;50.890;5.982;2023-07-29T02:29:42;9.30;;;3.10;;
36233;SDS011;43467;50.890;5.982;2023-07-29T02:32:07;5.30;;;2.90;;
36233;SDS011;43467;50.890;5.982;2023-07-29T02:34:33;3.33;;;2.80;;
36233;SDS011;43467;50.890;5.982;2023-07-29T02:36:59;5.90;;;3.10;;
36233;SDS011;43467;50.890;5.982;2023-07-29T02:39:24;4.93;;;2.90;;
36233;SDS011;43467;50.890;5.982;2023-07-29T02:41:50;6.03;;;3.22;;
36233;SDS011;43467;50.890;5.982;2023-07-29T02:44:16;7.95;;;3.78;;
36233;SDS011;43467;50.890;5.982;2023-07-29T02:46:44;4.78;;;3.22;;
36233;SDS011;43467;50.890;5.982;2023-07-29T02:49:10;5.40;;;3.25;;
36233;SDS011;43467;50.890;5.982;2023-07-29T02:51:35;3.45;;;2.50;;
36233;SDS011;43467;50.890;5.982;2023-07-29T02:54:01;3.88;;;3.17;;
36233;SDS011;43467;50.890;5.982;2023-07-29T02:56:27;8.35;;;3.60;;
36233;SDS011;43467;50.890;5.982;2023-07-29T02:58:53;2.95;;;2.65;;
36233;SDS011;43467;50.890;5.982;2023-07-29T03:01:18;2.75;;;2.53;;
36233;SDS011;43467;50.890;5.982;2023-07-29T03:03:44;4.47;;;2.80;;
36233;SDS011;43467;50.890;5.982;2023-07-29T03:06:11;4.57;;;2.95;;
36233;SDS011;43467;50.890;5.982;2023-07-29T03:08:39;4.82;;;2.65;;
36233;SDS011;43467;50.890;5.982;2023-07-29T03:11:08;4.93;;;3.38;;
36233;SDS011;43467;50.890;5.982;2023-07-29T03:13:36;5.30;;;3.10;;
36233;SDS011;43467;50.890;5.982;2023-07-29T03:18:34;5.05;;;2.78;;
36233;SDS011;43467;50.890;5.982;2023-07-29T03:21:00;4.55;;;2.67;;
36233;SDS011;43467;50.890;5.982;2023-07-29T03:23:26;6.75;;;2.42;;
36233;SDS011;43467;50.890;5.982;2023-07-29T03:25:55;3.70;;;2.33;;
36233;SDS011;43467;50.890;5.982;2023-07-29T03:28:23;6.10;;;2.05;;
36233;SDS011;43467;50.890;5.982;2023-07-29T03:30:50;4.88;;;2.08;;
36233;SDS011;43467;50.890;5.982;2023-07-29T03:33:16;4.90;;;2.13;;
36233;SDS011;43467;50.890;5.982;2023-07-29T03:35:41;4.03;;;2.00;;
36233;SDS011;43467;50.890;5.982;2023-07-29T03:38:09;7.00;;;2.20;;
36233;SDS011;43467;50.890;5.982;2023-07-29T03:40:36;3.30;;;2.38;;
36233;SDS011;43467;50.890;5.982;2023-07-29T03:43:02;3.45;;;2.15;;
36233;SDS011;43467;50.890;5.982;2023-07-29T03:45:27;8.35;;;2.72;;
36233;SDS011;43467;50.890;5.982;2023-07-29T03:47:53;4.00;;;2.38;;
36233;SDS011;43467;50.890;5.982;2023-07-29T03:50:19;5.93;;;2.67;;
36233;SDS011;43467;50.890;5.982;2023-07-29T03:52:44;3.50;;;2.00;;
36233;SDS011;43467;50.890;5.982;2023-07-29T03:55:10;3.58;;;2.08;;
36233;SDS011;43467;50.890;5.982;2023-07-29T03:57:35;6.40;;;2.00;;
36233;SDS011;43467;50.890;5.982;2023-07-29T04:00:01;4.20;;;1.70;;
36233;SDS011;43467;50.890;5.982;2023-07-29T04:02:28;4.43;;;1.90;;
36233;SDS011;43467;50.890;5.982;2023-07-29T04:04:53;2.53;;;1.83;;
36233;SDS011;43467;50.890;5.982;2023-07-29T04:07:19;2.05;;;1.50;;
36233;SDS011;43467;50.890;5.982;2023-07-29T04:09:45;2.67;;;1.85;;
36233;SDS011;43467;50.890;5.982;2023-07-29T04:12:11;5.00;;;1.95;;
36233;SDS011;43467;50.890;5.982;2023-07-29T04:14:37;3.05;;;1.80;;
36233;SDS011;43467;50.890;5.982;2023-07-29T04:17:03;3.47;;;2.17;;
36233;SDS011;43467;50.890;5.982;2023-07-29T04:19:28;5.90;;;1.95;;
36233;SDS011;43467;50.890;5.982;2023-07-29T04:21:54;3.20;;;2.13;;
36233;SDS011;43467;50.890;5.982;2023-07-29T04:24:20;5.55;;;2.30;;
36233;SDS011;43467;50.890;5.982;2023-07-29T04:26:48;9.88;;;1.95;;
36233;SDS011;43467;50.890;5.982;2023-07-29T04:29:14;3.95;;;2.13;;
36233;SDS011;43467;50.890;5.982;2023-07-29T04:31:40;8.00;;;2.15;;
36233;SDS011;43467;50.890;5.982;2023-07-29T04:34:05;4.82;;;2.20;;
36233;SDS011;43467;50.890;5.982;2023-07-29T04:36:32;2.72;;;2.17;;
36233;SDS011;43467;50.890;5.982;2023-07-29T04:38:58;3.72;;;1.90;;
36233;SDS011;43467;50.890;5.982;2023-07-29T04:41:24;4.35;;;2.00;;
36233;SDS011;43467;50.890;5.982;2023-07-29T04:43:49;3.53;;;2.20;;
36233;SDS011;43467;50.890;5.982;2023-07-29T04:46:15;5.60;;;1.92;;
36233;SDS011;43467;50.890;5.982;2023-07-29T04:48:40;3.90;;;1.85;;
36233;SDS011;43467;50.890;5.982;2023-07-29T04:51:07;4.95;;;2.15;;
36233;SDS011;43467;50.890;5.982;2023-07-29T04:53:32;3.35;;;2.22;;
36233;SDS011;43467;50.890;5.982;2023-07-29T04:56:00;4.00;;;1.83;;
36233;SDS011;43467;50.890;5.982;2023-07-29T04:58:25;4.90;;;1.90;;
36233;SDS011;43467;50.890;5.982;2023-07-29T05:00:51;5.25;;;2.15;;
36233;SDS011;43467;50.890;5.982;2023-07-29T05:03:17;2.20;;;1.77;;
36233;SDS011;43467;50.890;5.982;2023-07-29T05:05:43;3.60;;;2.10;;
36233;SDS011;43467;50.890;5.982;2023-07-29T05:08:10;4.38;;;2.30;;
36233;SDS011;43467;50.890;5.982;2023-07-29T05:10:35;2.42;;;1.70;;
36233;SDS011;43467;50.890;5.982;2023-07-29T05:13:01;4.10;;;1.92;;
36233;SDS011;43467;50.890;5.982;2023-07-29T05:15:27;6.10;;;2.08;;
36233;SDS011;43467;50.890;5.982;2023-07-29T05:17:53;6.25;;;2.53;;
36233;SDS011;43467;50.890;5.982;2023-07-29T05:20:18;6.28;;;2.30;;
36233;SDS011;43467;50.890;5.982;2023-07-29T05:22:44;4.30;;;2.38;;
36233;SDS011;43467;50.890;5.982;2023-07-29T05:25:10;3.83;;;2.40;;
36233;SDS011;43467;50.890;5.982;2023-07-29T05:27:35;3.65;;;2.25;;
36233;SDS011;43467;50.890;5.982;2023-07-29T05:30:02;3.25;;;2.15;;
36233;SDS011;43467;50.890;5.982;2023-07-29T05:32:28;4.80;;;2.50;;
36233;SDS011;43467;50.890;5.982;2023-07-29T05:34:54;4.90;;;2.00;;
36233;SDS011;43467;50.890;5.982;2023-07-29T05:37:20;6.03;;;2.13;;
36233;SDS011;43467;50.890;5.982;2023-07-29T05:39:45;5.20;;;2.30;;
36233;SDS011;43467;50.890;5.982;2023-07-29T05:42:11;5.53;;;2.40;;
36233;SDS011;43467;50.890;5.982;2023-07-29T05:44:37;3.17;;;2.20;;
36233;SDS011;43467;50.890;5.982;2023-07-29T05:47:03;4.15;;;2.35;;
36233;SDS011;43467;50.890;5.982;2023-07-29T05:49:29;4.78;;;2.45;;
36233;SDS011;43467;50.890;5.982;2023-07-29T05:51:55;4.13;;;2.30;;
36233;SDS011;43467;50.890;5.982;2023-07-29T05:54:20;6.38;;;2.88;;
36233;SDS011;43467;50.890;5.982;2023-07-29T05:56:46;5.22;;;2.30;;
36233;SDS011;43467;50.890;5.982;2023-07-29T05:59:11;8.52;;;2.60;;
36233;SDS011;43467;50.890;5.982;2023-07-29T06:01:39;6.63;;;2.50;;
36233;SDS011;43467;50.890;5.982;2023-07-29T06:04:04;5.78;;;2.00;;
36233;SDS011;43467;50.890;5.982;2023-07-29T06:06:30;7.65;;;2.30;;
36233;SDS011;43467;50.890;5.982;2023-07-29T06:08:56;7.70;;;2.97;;
36233;SDS011;43467;50.890;5.982;2023-07-29T06:11:22;4.90;;;2.22;;
36233;SDS011;43467;50.890;5.982;2023-07-29T06:13:47;8.20;;;2.53;;
36233;SDS011;43467;50.890;5.982;2023-07-29T06:16:13;4.45;;;2.30;;
36233;SDS011;43467;50.890;5.982;2023-07-29T06:18:38;4.25;;;2.20;;
36233;SDS011;43467;50.890;5.982;2023-07-29T06:21:04;5.60;;;2.10;;
36233;SDS011;43467;50.890;5.982;2023-07-29T06:23:36;7.28;;;2.60;;
36233;SDS011;43467;50.890;5.982;2023-07-29T06:26:01;5.20;;;2.10;;
36233;SDS011;43467;50.890;5.982;2023-07-29T06:28:27;4.25;;;2.33;;
36233;SDS011;43467;50.890;5.982;2023-07-29T06:30:53;5.18;;;2.10;;
36233;SDS011;43467;50.890;5.982;2023-07-29T06:33:19;5.32;;;1.80;;
36233;SDS011;43467;50.890;5.982;2023-07-29T06:35:44;4.35;;;2.05;;
36233;SDS011;43467;50.890;5.982;2023-07-29T06:38:10;5.40;;;1.70;;
36233;SDS011;43467;50.890;5.982;2023-07-29T06:40:36;2.00;;;1.70;;
36233;SDS011;43467;50.890;5.982;2023-07-29T06:43:02;5.80;;;2.03;;
36233;SDS011;43467;50.890;5.982;2023-07-29T06:45:27;4.72;;;2.00;;
36233;SDS011;43467;50.890;5.982;2023-07-29T06:47:53;3.58;;;1.80;;
36233;SDS011;43467;50.890;5.982;2023-07-29T06:50:18;3.35;;;1.77;;
36233;SDS011;43467;50.890;5.982;2023-07-29T06:52:44;3.05;;;1.70;;
36233;SDS011;43467;50.890;5.982;2023-07-29T06:55:11;5.68;;;1.90;;
36233;SDS011;43467;50.890;5.982;2023-07-29T06:57:36;2.58;;;1.77;;
36233;SDS011;43467;50.890;5.982;2023-07-29T07:00:02;3.97;;;1.67;;
36233;SDS011;43467;50.890;5.982;2023-07-29T07:02:29;5.40;;;2.35;;
36233;SDS011;43467;50.890;5.982;2023-07-29T07:04:56;2.75;;;1.58;;
36233;SDS011;43467;50.890;5.982;2023-07-29T07:07:21;2.72;;;2.00;;
36233;SDS011;43467;50.890;5.982;2023-07-29T07:09:47;3.97;;;1.65;;
36233;SDS011;43467;50.890;5.982;2023-07-29T07:12:13;3.00;;;1.70;;
36233;SDS011;43467;50.890;5.982;2023-07-29T07:14:39;5.25;;;1.48;;
36233;SDS011;43467;50.890;5.982;2023-07-29T07:17:04;3.05;;;1.83;;
36233;SDS011;43467;50.890;5.982;2023-07-29T07:19:30;3.97;;;1.50;;
36233;SDS011;43467;50.890;5.982;2023-07-29T07:21:56;4.20;;;2.20;;
36233;SDS011;43467;50.890;5.982;2023-07-29T07:24:22;2.92;;;1.75;;
36233;SDS011;43467;50.890;5.982;2023-07-29T07:26:47;2.63;;;1.55;;
36233;SDS011;43467;50.890;5.982;2023-07-29T07:29:13;3.58;;;1.52;;
36233;SDS011;43467;50.890;5.982;2023-07-29T07:31:40;3.05;;;1.45;;
36233;SDS011;43467;50.890;5.982;2023-07-29T07:34:05;2.63;;;1.58;;
36233;SDS011;43467;50.890;5.982;2023-07-29T07:36:31;3.22;;;1.30;;
36233;SDS011;43467;50.890;5.982;2023-07-29T07:38:57;3.65;;;1.50;;
36233;SDS011;43467;50.890;5.982;2023-07-29T07:41:23;6.20;;;1.52;;
36233;SDS011;43467;50.890;5.982;2023-07-29T07:43:49;5.22;;;1.42;;
36233;SDS011;43467;50.890;5.982;2023-07-29T07:46:15;6.30;;;1.42;;
36233;SDS011;43467;50.890;5.982;2023-07-29T07:48:41;9.43;;;1.42;;
36233;SDS011;43467;50.890;5.982;2023-07-29T07:51:11;4.00;;;0.93;;
36233;SDS011;43467;50.890;5.982;2023-07-29T07:53:37;1.27;;;1.05;;
36233;SDS011;43467;50.890;5.982;2023-07-29T07:56:03;2.60;;;1.30;;
36233;SDS011;43467;50.890;5.982;2023-07-29T07:58:28;2.13;;;1.13;;
36233;SDS011;43467;50.890;5.982;2023-07-29T08:01:00;3.13;;;1.20;;
36233;SDS011;43467;50.890;5.982;2023-07-29T08:03:29;2.00;;;1.50;;
36233;SDS011;43467;50.890;5.982;2023-07-29T08:05:55;3.63;;;1.63;;
36233;SDS011;43467;50.890;5.982;2023-07-29T08:08:21;3.67;;;2.05;;
36233;SDS011;43467;50.890;5.982;2023-07-29T08:10:46;3.15;;;1.52;;
36233;SDS011;43467;50.890;5.982;2023-07-29T08:13:12;6.50;;;2.22;;
36233;SDS011;43467;50.890;5.982;2023-07-29T08:15:37;4.47;;;1.67;;
36233;SDS011;43467;50.890;5.982;2023-07-29T08:18:03;4.68;;;1.92;;
36233;SDS011;43467;50.890;5.982;2023-07-29T08:20:29;3.47;;;1.60;;
36233;SDS011;43467;50.890;5.982;2023-07-29T08:22:55;5.03;;;1.70;;
36233;SDS011;43467;50.890;5.982;2023-07-29T08:25:20;3.47;;;1.23;;
36233;SDS011;43467;50.890;5.982;2023-07-29T08:27:46;4.15;;;1.30;;
36233;SDS011;43467;50.890;5.982;2023-07-29T08:30:11;2.35;;;1.40;;
36233;SDS011;43467;50.890;5.982;2023-07-29T08:32:37;5.75;;;1.33;;
36233;SDS011;43467;50.890;5.982;2023-07-29T08:35:03;4.80;;;1.95;;
36233;SDS011;43467;50.890;5.982;2023-07-29T08:37:28;4.10;;;1.23;;
36233;SDS011;43467;50.890;5.982;2023-07-29T08:39:54;2.25;;;1.58;;
36233;SDS011;43467;50.890;5.982;2023-07-29T08:42:20;4.03;;;1.88;;
36233;SDS011;43467;50.890;5.982;2023-07-29T08:44:49;2.33;;;1.55;;
36233;SDS011;43467;50.890;5.982;2023-07-29T08:47:15;4.60;;;1.58;;
36233;SDS011;43467;50.890;5.982;2023-07-29T08:49:42;2.78;;;1.48;;
36233;SDS011;43467;50.890;5.982;2023-07-29T08:52:09;3.75;;;1.50;;
36233;SDS011;43467;50.890;5.982;2023-07-29T08:54:36;2.70;;;1.40;;
36233;SDS011;43467;50.890;5.982;2023-07-29T08:57:02;5.35;;;1.88;;
36233;SDS011;43467;50.890;5.982;2023-07-29T08:59:28;2.65;;;1.25;;
36233;SDS011;43467;50.890;5.982;2023-07-29T09:01:54;2.80;;;1.83;;
36233;SDS011;43467;50.890;5.982;2023-07-29T09:04:22;3.00;;;1.58;;
36233;SDS011;43467;50.890;5.982;2023-07-29T09:06:48;4.18;;;1.40;;
36233;SDS011;43467;50.890;5.982;2023-07-29T09:09:15;2.47;;;1.40;;
36233;SDS011;43467;50.890;5.982;2023-07-29T09:11:41;3.22;;;1.30;;
36233;SDS011;43467;50.890;5.982;2023-07-29T09:14:08;2.40;;;1.63;;
36233;SDS011;43467;50.890;5.982;2023-07-29T09:16:34;2.08;;;1.35;;
36233;SDS011;43467;50.890;5.982;2023-07-29T09:19:02;5.07;;;1.73;;
36233;SDS011;43467;50.890;5.982;2023-07-29T09:21:28;3.42;;;1.60;;
36233;SDS011;43467;50.890;5.982;2023-07-29T09:23:55;2.00;;;1.63;;
36233;SDS011;43467;50.890;5.982;2023-07-29T09:26:27;5.07;;;1.90;;
36233;SDS011;43467;50.890;5.982;2023-07-29T09:28:54;2.03;;;1.50;;
36233;SDS011;43467;50.890;5.982;2023-07-29T09:31:22;5.95;;;1.77;;
36233;SDS011;43467;50.890;5.982;2023-07-29T09:33:49;4.78;;;1.98;;
36233;SDS011;43467;50.890;5.982;2023-07-29T09:36:15;2.95;;;1.60;;
36233;SDS011;43467;50.890;5.982;2023-07-29T09:38:41;4.45;;;1.80;;
36233;SDS011;43467;50.890;5.982;2023-07-29T09:41:09;3.13;;;1.23;;
36233;SDS011;43467;50.890;5.982;2023-07-29T09:43:37;4.18;;;1.80;;
36233;SDS011;43467;50.890;5.982;2023-07-29T09:46:06;1.80;;;1.40;;
36233;SDS011;43467;50.890;5.982;2023-07-29T09:48:34;2.95;;;1.77;;
36233;SDS011;43467;50.890;5.982;2023-07-29T09:51:10;1.98;;;1.50;;
36233;SDS011;43467;50.890;5.982;2023-07-29T09:53:44;2.95;;;1.38;;
36233;SDS011;43467;50.890;5.982;2023-07-29T09:56:12;2.13;;;1.33;;
36233;SDS011;43467;50.890;5.982;2023-07-29T09:58:38;1.60;;;1.20;;
36233;SDS011;43467;50.890;5.982;2023-07-29T10:01:05;2.15;;;1.38;;
36233;SDS011;43467;50.890;5.982;2023-07-29T10:03:31;3.40;;;1.35;;
36233;SDS011;43467;50.890;5.982;2023-07-29T10:06:00;3.30;;;1.40;;
36233;SDS011;43467;50.890;5.982;2023-07-29T10:08:29;2.35;;;1.33;;
36233;SDS011;43467;50.890;5.982;2023-07-29T10:11:00;2.15;;;1.27;;
36233;SDS011;43467;50.890;5.982;2023-07-29T10:13:26;2.05;;;1.27;;
36233;SDS011;43467;50.890;5.982;2023-07-29T10:15:53;4.10;;;1.13;;
36233;SDS011;43467;50.890;5.982;2023-07-29T10:18:21;1.50;;;1.30;;
36233;SDS011;43467;50.890;5.982;2023-07-29T10:20:48;1.70;;;1.30;;
36233;SDS011;43467;50.890;5.982;2023-07-29T10:23:16;3.88;;;1.35;;
36233;SDS011;43467;50.890;5.982;2023-07-29T10:25:46;2.20;;;1.55;;
36233;SDS011;43467;50.890;5.982;2023-07-29T10:28:13;1.98;;;1.45;;
36233;SDS011;43467;50.890;5.982;2023-07-29T10:30:40;3.25;;;1.90;;
36233;SDS011;43467;50.890;5.982;2023-07-29T10:33:07;2.33;;;1.55;;
36233;SDS011;43467;50.890;5.982;2023-07-29T10:35:33;3.03;;;1.60;;
36233;SDS011;43467;50.890;5.982;2023-07-29T10:38:00;2.65;;;1.70;;
36233;SDS011;43467;50.890;5.982;2023-07-29T10:40:28;4.18;;;1.33;;
36233;SDS011;43467;50.890;5.982;2023-07-29T10:43:10;2.63;;;1.48;;
36233;SDS011;43467;50.890;5.982;2023-07-29T10:45:37;3.53;;;1.63;;
36233;SDS011;43467;50.890;5.982;2023-07-29T10:48:10;3.53;;;1.63;;
36233;SDS011;43467;50.890;5.982;2023-07-29T10:50:35;3.78;;;1.70;;
36233;SDS011;43467;50.890;5.982;2023-07-29T10:53:01;4.53;;;2.08;;
36233;SDS011;43467;50.890;5.982;2023-07-29T10:55:34;4.07;;;1.85;;
36233;SDS011;43467;50.890;5.982;2023-07-29T10:58:13;2.47;;;1.80;;
36233;SDS011;43467;50.890;5.982;2023-07-29T11:00:44;2.85;;;1.90;;
36233;SDS011;43467;50.890;5.982;2023-07-29T11:03:11;2.03;;;1.50;;
36233;SDS011;43467;50.890;5.982;2023-07-29T11:05:48;2.83;;;2.00;;
36233;SDS011;43467;50.890;5.982;2023-07-29T11:08:20;2.20;;;1.67;;
36233;SDS011;43467;50.890;5.982;2023-07-29T11:11:02;3.40;;;1.70;;
36233;SDS011;43467;50.890;5.982;2023-07-29T11:13:30;3.75;;;1.85;;
36233;SDS011;43467;50.890;5.982;2023-07-29T11:15:57;2.47;;;1.85;;
36233;SDS011;43467;50.890;5.982;2023-07-29T11:18:33;1.83;;;1.50;;
36233;SDS011;43467;50.890;5.982;2023-07-29T11:21:00;4.85;;;1.75;;
36233;SDS011;43467;50.890;5.982;2023-07-29T11:23:32;3.92;;;1.42;;
36233;SDS011;43467;50.890;5.982;2023-07-29T11:26:02;1.75;;;1.42;;
36233;SDS011;43467;50.890;5.982;2023-07-29T11:28:37;2.60;;;1.80;;
36233;SDS011;43467;50.890;5.982;2023-07-29T11:31:04;3.90;;;1.80;;
36233;SDS011;43467;50.890;5.982;2023-07-29T11:33:29;1.67;;;1.30;;
36233;SDS011;43467;50.890;5.982;2023-07-29T11:35:55;3.20;;;1.77;;
36233;SDS011;43467;50.890;5.982;2023-07-29T11:38:21;3.92;;;1.50;;
36233;SDS011;43467;50.890;5.982;2023-07-29T11:40:55;3.13;;;1.75;;
36233;SDS011;43467;50.890;5.982;2023-07-29T11:43:22;1.58;;;1.27;;
36233;SDS011;43467;50.890;5.982;2023-07-29T11:45:48;2.38;;;1.52;;
36233;SDS011;43467;50.890;5.982;2023-07-29T11:48:13;4.07;;;1.80;;
36233;SDS011;43467;50.890;5.982;2023-07-29T11:50:39;2.33;;;1.50;;
36233;SDS011;43467;50.890;5.982;2023-07-29T11:53:05;1.35;;;1.23;;
36233;SDS011;43467;50.890;5.982;2023-07-29T11:55:31;1.50;;;1.40;;
36233;SDS011;43467;50.890;5.982;2023-07-29T11:57:59;1.73;;;1.33;;
36233;SDS011;43467;50.890;5.982;2023-07-29T12:00:27;3.38;;;1.55;;
36233;SDS011;43467;50.890;5.982;2023-07-29T12:02:53;2.28;;;1.50;;
36233;SDS011;43467;50.890;5.982;2023-07-29T12:05:20;3.30;;;1.50;;
36233;SDS011;43467;50.890;5.982;2023-07-29T12:07:47;2.65;;;1.88;;
36233;SDS011;43467;50.890;5.982;2023-07-29T12:10:13;1.85;;;1.27;;
36233;SDS011;43467;50.890;5.982;2023-07-29T12:12:49;3.95;;;1.60;;
36233;SDS011;43467;50.890;5.982;2023-07-29T12:15:28;2.00;;;1.70;;
36233;SDS011;43467;50.890;5.982;2023-07-29T12:17:56;7.93;;;1.85;;
36233;SDS011;43467;50.890;5.982;2023-07-29T12:20:22;1.90;;;1.60;;
36233;SDS011;43467;50.890;5.982;2023-07-29T12:22:55;2.38;;;1.33;;
36233;SDS011;43467;50.890;5.982;2023-07-29T12:25:21;1.98;;;1.52;;
36233;SDS011;43467;50.890;5.982;2023-07-29T12:27:48;3.13;;;1.60;;
36233;SDS011;43467;50.890;5.982;2023-07-29T12:30:14;2.55;;;1.85;;
36233;SDS011;43467;50.890;5.982;2023-07-29T12:32:43;2.95;;;1.70;;
36233;SDS011;43467;50.890;5.982;2023-07-29T12:35:11;2.75;;;1.88;;
36233;SDS011;43467;50.890;5.982;2023-07-29T12:37:37;2.95;;;1.70;;
36233;SDS011;43467;50.890;5.982;2023-07-29T12:40:07;2.58;;;1.70;;
36233;SDS011;43467;50.890;5.982;2023-07-29T12:42:54;2.00;;;1.80;;
36233;SDS011;43467;50.890;5.982;2023-07-29T12:45:19;2.22;;;1.70;;
36233;SDS011;43467;50.890;5.982;2023-07-29T12:47:49;3.78;;;1.85;;
36233;SDS011;43467;50.890;5.982;2023-07-29T12:50:16;3.92;;;2.28;;
36233;SDS011;43467;50.890;5.982;2023-07-29T12:52:42;4.30;;;1.95;;
36233;SDS011;43467;50.890;5.982;2023-07-29T12:55:08;3.17;;;1.77;;
36233;SDS011;43467;50.890;5.982;2023-07-29T12:57:38;3.58;;;1.80;;
36233;SDS011;43467;50.890;5.982;2023-07-29T13:00:05;3.88;;;1.95;;
36233;SDS011;43467;50.890;5.982;2023-07-29T13:02:31;6.38;;;2.70;;
36233;SDS011;43467;50.890;5.982;2023-07-29T13:04:57;3.22;;;2.00;;
36233;SDS011;43467;50.890;5.982;2023-07-29T13:07:25;1.90;;;1.60;;
36233;SDS011;43467;50.890;5.982;2023-07-29T13:09:50;3.00;;;2.00;;
36233;SDS011;43467;50.890;5.982;2023-07-29T13:12:16;3.03;;;1.70;;
36233;SDS011;43467;50.890;5.982;2023-07-29T13:14:44;5.78;;;2.30;;
36233;SDS011;43467;50.890;5.982;2023-07-29T13:17:12;2.63;;;1.85;;
36233;SDS011;43467;50.890;5.982;2023-07-29T13:19:38;2.67;;;1.98;;
36233;SDS011;43467;50.890;5.982;2023-07-29T13:22:06;2.60;;;1.60;;
36233;SDS011;43467;50.890;5.982;2023-07-29T13:24:33;3.58;;;2.10;;
36233;SDS011;43467;50.890;5.982;2023-07-29T13:26:58;3.15;;;1.50;;
36233;SDS011;43467;50.890;5.982;2023-07-29T13:29:24;2.63;;;1.70;;
36233;SDS011;43467;50.890;5.982;2023-07-29T13:31:53;2.05;;;1.50;;
36233;SDS011;43467;50.890;5.982;2023-07-29T13:34:20;3.70;;;1.90;;
36233;SDS011;43467;50.890;5.982;2023-07-29T13:36:46;2.75;;;1.85;;
36233;SDS011;43467;50.890;5.982;2023-07-29T13:39:12;2.38;;;2.03;;
36233;SDS011;43467;50.890;5.982;2023-07-29T13:41:38;3.28;;;2.60;;
36233;SDS011;43467;50.890;5.982;2023-07-29T13:44:05;3.30;;;2.22;;
36233;SDS011;43467;50.890;5.982;2023-07-29T13:46:30;2.75;;;2.25;;
36233;SDS011;43467;50.890;5.982;2023-07-29T13:48:56;6.18;;;3.38;;
36233;SDS011;43467;50.890;5.982;2023-07-29T13:51:22;3.63;;;1.98;;
36233;SDS011;43467;50.890;5.982;2023-07-29T13:53:48;1.92;;;1.35;;
36233;SDS011;43467;50.890;5.982;2023-07-29T13:56:13;4.45;;;2.28;;
36233;SDS011;43467;50.890;5.982;2023-07-29T13:58:39;12.85;;;8.30;;
36233;SDS011;43467;50.890;5.982;2023-07-29T14:01:05;11.85;;;7.63;;
36233;SDS011;43467;50.890;5.982;2023-07-29T14:03:31;13.02;;;6.28;;
36233;SDS011;43467;50.890;5.982;2023-07-29T14:05:57;6.68;;;5.10;;
36233;SDS011;43467;50.890;5.982;2023-07-29T14:08:22;4.57;;;3.65;;
36233;SDS011;43467;50.890;5.982;2023-07-29T14:10:51;5.75;;;4.13;;
36233;SDS011;43467;50.890;5.982;2023-07-29T14:13:16;5.00;;;3.40;;
36233;SDS011;43467;50.890;5.982;2023-07-29T14:15:42;4.45;;;2.65;;
36233;SDS011;43467;50.890;5.982;2023-07-29T14:18:08;4.22;;;2.42;;
36233;SDS011;43467;50.890;5.982;2023-07-29T14:20:34;5.93;;;2.00;;
36233;SDS011;43467;50.890;5.982;2023-07-29T14:23:00;1.90;;;1.50;;
36233;SDS011;43467;50.890;5.982;2023-07-29T14:25:26;2.88;;;2.40;;
36233;SDS011;43467;50.890;5.982;2023-07-29T14:27:52;10.85;;;7.60;;
36233;SDS011;43467;50.890;5.982;2023-07-29T14:30:18;6.05;;;4.82;;
36233;SDS011;43467;50.890;5.982;2023-07-29T14:32:44;3.17;;;2.42;;
36233;SDS011;43467;50.890;5.982;2023-07-29T14:35:10;3.78;;;2.10;;
36233;SDS011;43467;50.890;5.982;2023-07-29T14:37:35;3.15;;;1.92;;
36233;SDS011;43467;50.890;5.982;2023-07-29T14:40:03;2.38;;;1.52;;
36233;SDS011;43467;50.890;5.982;2023-07-29T14:42:29;3.53;;;2.28;;
36233;SDS011;43467;50.890;5.982;2023-07-29T14:44:54;2.80;;;1.90;;
36233;SDS011;43467;50.890;5.982;2023-07-29T14:47:20;3.72;;;2.75;;
36233;SDS011;43467;50.890;5.982;2023-07-29T14:49:45;3.63;;;2.08;;
36233;SDS011;43467;50.890;5.982;2023-07-29T14:52:11;1.95;;;1.63;;
36233;SDS011;43467;50.890;5.982;2023-07-29T14:54:40;2.67;;;1.73;;
36233;SDS011;43467;50.890;5.982;2023-07-29T14:57:06;2.30;;;2.08;;